Time;durP1;ratioP1;P1;durP2;ratioP2;P2;SDS_P1;SDS_P2;PMS_P1;PMS_P2;Temp;Humidity;BMP_temperature;BMP_pressure;BME280_temperature;BME280_humidity;BME280_pressure;Samples;Min_cycle;Max_cycle;Signal;HPM_P1;HPM_P2
2022/04/24 00:01:15;;;;;;;13.10;7.78;;;;;;;11.53;100.00;100099.03;5202749;28;20037;-70
2022/04/24 00:03:46;;;;;;;11.15;7.80;;;;;;;11.48;100.00;100096.09;5203035;28;20079;-71
2022/04/24 00:06:16;;;;;;;14.02;8.23;;;;;;;11.45;100.00;100096.50;5202795;28;20029;-71
2022/04/24 00:08:47;;;;;;;14.25;7.72;;;;;;;11.39;100.00;100098.88;5202309;28;20467;-71
2022/04/24 00:11:17;;;;;;;12.85;6.85;;;;;;;11.36;100.00;100099.28;5201419;28;20021;-71
2022/04/24 00:13:48;;;;;;;19.02;6.85;;;;;;;11.33;100.00;100094.28;5202890;28;20025;-71
2022/04/24 00:16:18;;;;;;;11.82;7.10;;;;;;;11.30;100.00;100093.84;5202621;28;20022;-71
2022/04/24 00:18:49;;;;;;;12.77;7.47;;;;;;;11.24;100.00;100102.63;5202651;28;20048;-70
2022/04/24 00:21:19;;;;;;;13.85;7.55;;;;;;;11.19;100.00;100097.81;5202691;28;20233;-70
2022/04/24 00:23:50;;;;;;;9.48;6.28;;;;;;;11.12;100.00;100087.03;5202363;28;20394;-70
2022/04/24 00:26:20;;;;;;;14.15;7.63;;;;;;;11.07;100.00;100091.28;5202578;28;20029;-71
2022/04/24 00:28:51;;;;;;;14.27;7.68;;;;;;;10.98;100.00;100090.56;5202629;28;20021;-71
2022/04/24 00:31:21;;;;;;;11.32;7.22;;;;;;;10.93;100.00;100090.28;5202582;28;20032;-70
2022/04/24 00:33:52;;;;;;;13.55;7.63;;;;;;;10.84;100.00;100089.56;5203238;28;20491;-71
2022/04/24 00:36:22;;;;;;;12.30;6.68;;;;;;;10.80;100.00;100092.81;5201888;28;20061;-71
2022/04/24 00:38:52;;;;;;;10.10;6.35;;;;;;;10.78;100.00;100089.47;5198651;28;20060;-70
2022/04/24 00:41:23;;;;;;;10.25;5.93;;;;;;;10.75;100.00;100088.00;5202445;28;20075;-71
2022/04/24 00:43:54;;;;;;;11.18;6.07;;;;;;;10.73;100.00;100091.88;5202774;28;20029;-70
2022/04/24 00:47:02;;;;;;;10.35;6.07;;;;;;;10.71;100.00;100094.75;5202311;28;20055;-70
2022/04/24 00:49:33;;;;;;;14.70;6.35;;;;;;;10.67;100.00;100096.13;5202384;28;20044;-70
2022/04/24 00:52:04;;;;;;;8.35;5.72;;;;;;;10.64;100.00;100093.81;5202525;28;20048;-71
2022/04/24 00:54:34;;;;;;;12.98;6.38;;;;;;;10.66;100.00;100090.97;5202039;28;20080;-71
2022/04/24 00:57:08;;;;;;;10.05;5.88;;;;;;;10.65;100.00;100092.81;5202237;28;20561;-71
2022/04/24 00:59:39;;;;;;;10.63;5.70;;;;;;;10.67;100.00;100089.94;5202247;28;20030;-71
2022/04/24 01:02:10;;;;;;;9.88;6.63;;;;;;;10.65;100.00;100094.66;5189290;28;20053;-70
2022/04/24 01:04:40;;;;;;;13.93;6.05;;;;;;;10.64;100.00;100093.81;5202637;28;20101;-71
2022/04/24 01:07:11;;;;;;;11.38;5.97;;;;;;;10.60;100.00;100096.06;5202632;28;20017;-71
2022/04/24 01:09:42;;;;;;;12.77;6.00;;;;;;;10.59;100.00;100093.53;5202442;28;20037;-71
2022/04/24 01:12:13;;;;;;;10.52;5.95;;;;;;;10.58;100.00;100099.91;5202473;28;20021;-71
2022/04/24 01:14:43;;;;;;;8.88;5.25;;;;;;;10.57;100.00;100104.44;5201151;28;20112;-71
2022/04/24 01:17:14;;;;;;;10.00;5.75;;;;;;;10.60;100.00;100098.72;5202539;28;20040;-71
2022/04/24 01:19:45;;;;;;;9.93;5.75;;;;;;;10.59;100.00;100105.13;5204562;28;20076;-71
2022/04/24 01:22:17;;;;;;;11.45;5.93;;;;;;;10.60;100.00;100095.22;5205836;28;20037;-71
2022/04/24 01:24:48;;;;;;;8.38;5.20;;;;;;;10.62;100.00;100099.38;5205932;28;20174;-71
2022/04/24 01:27:19;;;;;;;11.77;5.68;;;;;;;10.63;100.00;100097.50;5206071;28;20131;-72
2022/04/24 01:29:49;;;;;;;14.68;5.75;;;;;;;10.63;100.00;100092.16;5205991;28;20021;-71
2022/04/24 01:32:20;;;;;;;9.75;5.50;;;;;;;10.61;100.00;100092.34;5205807;28;20024;-71
2022/04/24 01:34:50;;;;;;;13.38;5.70;;;;;;;10.60;100.00;100098.72;5205534;28;20021;-71
2022/04/24 01:37:20;;;;;;;14.30;6.20;;;;;;;10.57;100.00;100093.72;5204944;28;20032;-71
2022/04/24 01:40:07;;;;;;;8.95;5.22;;;;;;;10.54;100.00;100093.25;5202713;28;20119;-72
2022/04/24 01:42:38;;;;;;;10.25;5.85;;;;;;;10.51;100.00;100093.63;5205753;28;20017;-69
2022/04/24 01:45:09;;;;;;;10.40;5.70;;;;;;;10.47;100.00;100090.47;5205219;28;20492;-70
2022/04/24 01:47:39;;;;;;;9.40;5.68;;;;;;;10.45;100.00;100091.69;5205635;28;20104;-70
2022/04/24 01:50:10;;;;;;;12.90;6.18;;;;;;;10.40;100.00;100092.25;5205379;28;20483;-70
2022/04/24 01:52:40;;;;;;;9.38;5.47;;;;;;;10.34;100.00;100092.97;5205666;28;20029;-70
2022/04/24 01:55:11;;;;;;;9.88;5.88;;;;;;;10.29;100.00;100095.34;5205087;28;20068;-70
2022/04/24 01:57:41;;;;;;;10.90;6.22;;;;;;;10.23;100.00;100086.16;5205248;28;20116;-71
2022/04/24 02:00:15;;;;;;;10.73;6.35;;;;;;;10.17;100.00;100086.91;5204245;28;20140;-71
2022/04/24 02:02:47;;;;;;;9.45;5.65;;;;;;;10.13;100.00;100080.22;5191919;28;20033;-71
2022/04/24 02:05:18;;;;;;;9.57;5.35;;;;;;;10.11;100.00;100079.59;5204899;28;20490;-70
2022/04/24 02:07:48;;;;;;;10.85;6.43;;;;;;;10.08;100.00;100075.41;5204857;28;20033;-71
2022/04/24 02:10:23;;;;;;;11.07;6.10;;;;;;;10.05;100.00;100080.31;5205057;28;20398;-71
2022/04/24 02:12:53;;;;;;;9.25;5.47;;;;;;;10.02;100.00;100073.47;5205747;28;20031;-70
2022/04/24 02:15:24;;;;;;;12.50;5.55;;;;;;;9.98;100.00;100079.38;5204557;28;20385;-71
2022/04/24 02:17:55;;;;;;;12.30;6.47;;;;;;;9.95;100.00;100082.44;5205032;28;20025;-71
2022/04/24 02:23:13;;;;;;;10.68;5.43;;;;;;;9.95;100.00;100079.75;5204740;28;20025;-72
2022/04/24 02:25:44;;;;;;;11.05;5.53;;;;;;;9.96;100.00;100079.56;5204375;28;20505;-71
2022/04/24 02:28:14;;;;;;;13.02;5.68;;;;;;;10.00;100.00;100075.50;5204703;28;20141;-71
2022/04/24 02:30:45;;;;;;;10.93;5.80;;;;;;;10.04;100.00;100067.91;5203111;28;20025;-70
2022/04/24 02:33:15;;;;;;;10.52;5.72;;;;;;;10.09;100.00;100077.09;5204542;28;20114;-70
2022/04/24 02:35:46;;;;;;;10.40;5.28;;;;;;;10.08;100.00;100078.09;5204260;28;20053;-70
2022/04/24 02:38:16;;;;;;;11.07;5.53;;;;;;;10.09;100.00;100078.94;5200536;28;20032;-71
2022/04/24 02:40:47;;;;;;;7.00;5.10;;;;;;;10.09;100.00;100074.44;5204261;28;20026;-71
2022/04/24 02:43:17;;;;;;;9.23;5.65;;;;;;;10.10;100.00;100069.91;5203935;28;20032;-71
2022/04/24 02:45:48;;;;;;;10.07;5.15;;;;;;;10.10;100.00;100076.09;5202756;28;20025;-70
2022/04/24 02:48:18;;;;;;;9.77;5.45;;;;;;;10.15;100.00;100080.91;5204201;28;20071;-71
2022/04/24 02:50:48;;;;;;;7.72;5.05;;;;;;;10.19;100.00;100076.84;5203751;28;20449;-71
2022/04/24 02:53:19;;;;;;;11.00;5.68;;;;;;;10.20;100.00;100075.00;5204263;28;20178;-71
2022/04/24 02:55:49;;;;;;;8.18;5.30;;;;;;;10.25;100.00;100083.34;5203237;28;20025;-71
2022/04/24 02:58:21;;;;;;;8.63;5.47;;;;;;;10.28;100.00;100080.28;5204298;28;20021;-70
2022/04/24 03:00:54;;;;;;;9.95;5.13;;;;;;;10.30;100.00;100079.09;5203251;28;20087;-70
2022/04/24 03:03:25;;;;;;;8.57;5.38;;;;;;;10.36;100.00;100082.91;5204093;28;20030;-71
2022/04/24 03:05:56;;;;;;;8.20;4.75;;;;;;;10.40;100.00;100084.22;5203611;28;20108;-71
2022/04/24 03:08:27;;;;;;;9.05;5.50;;;;;;;10.42;100.00;100087.53;5203611;28;20117;-71
2022/04/24 03:10:57;;;;;;;10.52;6.00;;;;;;;10.46;100.00;100093.34;5203408;28;20025;-71
2022/04/24 03:13:28;;;;;;;8.65;5.47;;;;;;;10.47;100.00;100090.47;5203835;28;20018;-71
2022/04/24 03:15:59;;;;;;;9.00;5.75;;;;;;;10.49;100.00;100091.16;5203326;28;20155;-71
2022/04/24 03:18:30;;;;;;;10.93;5.75;;;;;;;10.50;100.00;100087.44;5203492;28;20116;-71
2022/04/24 03:21:01;;;;;;;11.27;5.88;;;;;;;10.48;100.00;100092.16;5203509;28;20187;-71
2022/04/24 03:23:31;;;;;;;10.43;5.93;;;;;;;10.43;100.00;100089.19;5203482;28;20029;-71
2022/04/24 03:26:02;;;;;;;9.45;6.50;;;;;;;10.40;100.00;100089.56;5203610;28;20545;-72
2022/04/24 03:28:33;;;;;;;9.82;6.32;;;;;;;10.40;100.00;100091.41;5203404;28;20022;-70
2022/04/24 03:31:03;;;;;;;9.10;5.32;;;;;;;10.38;100.00;100088.91;5203136;28;20033;-71
2022/04/24 03:33:34;;;;;;;11.98;5.90;;;;;;;10.35;100.00;100091.97;5203283;28;20160;-72
2022/04/24 03:36:04;;;;;;;8.60;6.03;;;;;;;10.32;100.00;100093.16;5203382;28;20063;-71
2022/04/24 03:38:35;;;;;;;11.20;6.00;;;;;;;10.33;100.00;100093.97;5198305;28;20053;-71
2022/04/24 03:41:05;;;;;;;10.65;6.03;;;;;;;10.29;100.00;100096.22;5202964;28;20030;-70
2022/04/24 03:43:36;;;;;;;12.55;6.05;;;;;;;10.28;100.00;100099.06;5202965;28;20025;-71
2022/04/24 03:46:07;;;;;;;9.80;5.78;;;;;;;10.31;100.00;100104.06;5202785;28;20124;-71
2022/04/24 03:48:38;;;;;;;8.85;6.05;;;;;;;10.37;100.00;100103.31;5203225;28;20037;-71
2022/04/24 03:51:08;;;;;;;10.65;6.03;;;;;;;10.46;100.00;100093.34;5201911;28;20078;-70
2022/04/24 03:53:39;;;;;;;8.50;6.05;;;;;;;10.54;100.00;100099.47;5203265;28;20053;-70
2022/04/24 03:56:09;;;;;;;11.75;7.00;;;;;;;10.57;100.00;100104.44;5202202;28;20018;-71
2022/04/24 03:58:40;;;;;;;9.07;6.53;;;;;;;10.60;100.00;100105.94;5203166;28;20033;-69
2022/04/24 04:01:12;;;;;;;9.20;5.65;;;;;;;10.60;100.00;100104.09;5194935;28;20032;-70
2022/04/24 04:03:43;;;;;;;10.15;5.93;;;;;;;10.56;100.00;100108.16;5196612;28;20505;-71
2022/04/24 04:06:13;;;;;;;9.32;6.45;;;;;;;10.54;100.00;100104.84;5202608;28;20096;-71
2022/04/24 04:08:43;;;;;;;9.45;6.38;;;;;;;10.48;100.00;100105.56;5202543;28;20394;-70
2022/04/24 04:11:14;;;;;;;8.82;6.43;;;;;;;10.42;100.00;100108.16;5203075;28;20021;-71
2022/04/24 04:13:44;;;;;;;11.43;6.95;;;;;;;10.29;100.00;100106.06;5202757;28;20026;-70
2022/04/24 04:16:15;;;;;;;10.00;6.53;;;;;;;10.23;100.00;100114.81;5202726;28;20029;-71
2022/04/24 04:18:45;;;;;;;13.00;6.70;;;;;;;10.16;100.00;100117.41;5202816;28;20045;-71
2022/04/24 04:21:16;;;;;;;11.27;6.78;;;;;;;10.10;100.00;100118.13;5202695;28;20053;-71
2022/04/24 04:23:46;;;;;;;10.18;6.57;;;;;;;10.03;100.00;100117.16;5202823;28;20033;-71
2022/04/24 04:26:17;;;;;;;9.88;6.60;;;;;;;9.95;100.00;100118.09;5202578;28;20025;-70
2022/04/24 04:28:48;;;;;;;10.68;7.35;;;;;;;9.88;100.00;100121.66;5202720;28;20025;-70
2022/04/24 04:31:18;;;;;;;11.35;6.47;;;;;;;9.81;100.00;100118.88;5202860;28;20026;-70
2022/04/24 04:33:49;;;;;;;10.82;6.82;;;;;;;9.78;100.00;100113.84;5202441;28;20025;-70
2022/04/24 04:36:20;;;;;;;11.75;7.38;;;;;;;9.75;100.00;100125.78;5202910;28;20033;-70
2022/04/24 04:38:50;;;;;;;28.35;7.00;;;;;;;9.71;100.00;100119.09;5198604;28;20025;-70
2022/04/24 04:41:21;;;;;;;10.77;6.97;;;;;;;9.66;100.00;100121.47;5201297;28;20436;-70
2022/04/24 04:43:51;;;;;;;11.85;6.47;;;;;;;9.62;100.00;100130.88;5202596;28;20037;-69
2022/04/24 04:46:21;;;;;;;10.57;6.88;;;;;;;9.57;100.00;100136.75;5201920;28;20036;-70
2022/04/24 04:48:52;;;;;;;10.70;6.90;;;;;;;9.54;100.00;100139.81;5202503;28;20049;-70
2022/04/24 04:51:22;;;;;;;11.57;7.57;;;;;;;9.54;100.00;100142.50;5202471;28;20014;-70
2022/04/24 04:53:55;;;;;;;10.80;7.18;;;;;;;9.51;100.00;100150.03;5203775;28;20432;-71
2022/04/24 04:56:26;;;;;;;11.73;7.05;;;;;;;9.46;100.00;100144.38;5206022;28;20053;-71
2022/04/24 04:58:56;;;;;;;12.50;7.75;;;;;;;9.43;100.00;100158.94;5206241;28;20421;-70
2022/04/24 05:01:26;;;;;;;11.05;7.35;;;;;;;9.43;100.00;100160.78;5197232;28;20388;-71
2022/04/24 05:03:58;;;;;;;11.18;7.28;;;;;;;9.45;100.00;100167.63;5201718;28;20021;-71
2022/04/24 05:06:29;;;;;;;12.23;7.07;;;;;;;9.48;100.00;100171.78;5206234;28;20024;-70
2022/04/24 05:08:59;;;;;;;12.20;7.70;;;;;;;9.51;100.00;100174.13;5205766;28;20391;-71
2022/04/24 05:11:30;;;;;;;11.73;6.90;;;;;;;9.56;100.00;100174.44;5206169;28;20102;-70
2022/04/24 05:14:00;;;;;;;13.65;7.53;;;;;;;9.58;100.00;100167.03;5205888;28;20435;-71
2022/04/24 05:16:31;;;;;;;11.25;7.43;;;;;;;9.59;100.00;100177.59;5206008;28;20037;-71
2022/04/24 05:19:02;;;;;;;15.55;7.53;;;;;;;9.62;100.00;100172.91;5205943;28;20075;-71
2022/04/24 05:21:34;;;;;;;11.00;7.82;;;;;;;9.63;100.00;100179.91;5205962;28;20026;-71
2022/04/24 05:24:05;;;;;;;15.80;8.38;;;;;;;9.64;100.00;100184.25;5206142;28;20100;-72
2022/04/24 05:26:35;;;;;;;12.95;7.95;;;;;;;9.67;100.00;100186.59;5205734;28;20257;-70
2022/04/24 05:29:06;;;;;;;12.32;8.27;;;;;;;9.69;100.00;100189.91;5206015;28;20025;-71
2022/04/24 05:31:36;;;;;;;11.38;7.65;;;;;;;9.71;100.00;100194.09;5205526;28;20021;-70
2022/04/24 05:34:07;;;;;;;12.43;8.18;;;;;;;9.75;100.00;100198.09;5205195;28;20028;-70
2022/04/24 05:36:37;;;;;;;15.30;8.05;;;;;;;9.80;100.00;100200.25;5205506;28;20033;-71
2022/04/24 05:39:08;;;;;;;15.90;8.32;;;;;;;9.85;100.00;100196.03;5201652;28;20033;-71
2022/04/24 05:41:38;;;;;;;13.35;7.95;;;;;;;9.97;100.00;100206.31;5205398;28;20108;-71
2022/04/24 05:44:09;;;;;;;12.10;8.20;;;;;;;10.03;100.00;100198.41;5205154;28;20383;-70
2022/04/24 05:46:39;;;;;;;15.40;8.57;;;;;;;10.14;100.00;100199.84;5205206;28;20021;-71
2022/04/24 05:49:10;;;;;;;14.18;8.45;;;;;;;10.26;100.00;100206.47;5205369;28;20017;-71
2022/04/24 05:51:40;;;;;;;13.23;8.32;;;;;;;10.59;100.00;100208.88;5205695;28;20033;-71
2022/04/24 05:54:11;;;;;;;13.07;7.43;;;;;;;11.26;100.00;100216.91;5205185;28;20104;-71
2022/04/24 05:56:42;;;;;;;11.40;8.55;;;;;;;11.99;100.00;100212.41;5205635;28;20429;-71
2022/04/24 05:59:12;;;;;;;13.70;8.32;;;;;;;12.52;100.00;100207.53;5204610;28;20017;-71
2022/04/24 06:01:43;;;;;;;12.45;8.82;;;;;;;13.06;100.00;100219.53;5194090;28;20034;-71
2022/04/24 06:04:13;;;;;;;11.35;7.97;;;;;;;13.40;100.00;100216.88;5187487;28;20112;-71
2022/04/24 06:06:44;;;;;;;11.68;8.13;;;;;;;13.81;100.00;100217.84;5211683;28;20035;-71
2022/04/24 06:09:18;;;;;;;11.25;7.95;;;;;;;14.28;100.00;100224.19;5203989;28;20124;-72
2022/04/24 06:11:48;;;;;;;9.75;8.27;;;;;;;14.67;100.00;100218.00;5202662;28;20470;-72
2022/04/24 06:14:19;;;;;;;10.07;8.15;;;;;;;14.74;100.00;100219.66;5192492;28;20025;-71
2022/04/24 06:16:49;;;;;;;13.38;7.97;;;;;;;14.93;100.00;100222.56;5203116;28;20036;-72
2022/04/24 06:19:20;;;;;;;13.40;8.82;;;;;;;15.07;100.00;100221.50;5203058;28;20300;-71
2022/04/24 06:21:51;;;;;;;11.82;8.73;;;;;;;14.93;98.80;100227.97;5202588;28;20029;-71
2022/04/24 06:24:21;;;;;;;12.45;8.40;;;;;;;14.81;98.54;100221.50;5202003;28;20025;-72
2022/04/24 06:26:52;;;;;;;16.90;9.07;;;;;;;14.99;98.18;100210.91;5202403;28;20048;-71
2022/04/24 06:29:22;;;;;;;11.55;8.43;;;;;;;15.33;99.85;100220.59;5202857;28;20308;-71
2022/04/24 06:31:53;;;;;;;10.10;8.73;;;;;;;15.65;94.21;100226.94;5202749;28;20108;-72
2022/04/24 06:34:23;;;;;;;14.63;8.20;;;;;;;15.70;91.54;100219.03;5201690;28;20091;-71
2022/04/24 06:36:54;;;;;;;10.27;8.05;;;;;;;16.00;91.67;100219.28;5202260;28;20190;-72
2022/04/24 06:39:25;;;;;;;11.55;9.20;;;;;;;16.17;90.64;100224.22;5198029;28;20390;-72
2022/04/24 06:41:55;;;;;;;13.35;9.15;;;;;;;16.06;90.89;100225.69;5202587;28;20506;-72
2022/04/24 06:44:26;;;;;;;10.85;8.43;;;;;;;15.65;88.54;100232.34;5201510;28;20112;-72
2022/04/24 06:46:56;;;;;;;10.75;8.35;;;;;;;16.10;90.99;100234.22;5202308;28;20029;-72
2022/04/24 06:49:27;;;;;;;10.23;8.10;;;;;;;15.64;87.99;100233.41;5202565;28;20365;-72
2022/04/24 06:51:57;;;;;;;13.30;9.05;;;;;;;15.48;92.28;100229.28;5202971;28;20660;-71
2022/04/24 06:54:28;;;;;;;12.65;8.73;;;;;;;15.70;91.80;100240.66;5201377;28;20642;-71
2022/04/24 06:57:01;;;;;;;10.82;8.23;;;;;;;16.25;89.82;100232.88;5201287;28;20113;-72
2022/04/24 06:59:32;;;;;;;13.18;8.02;;;;;;;16.16;86.83;100239.59;5201255;28;20032;-71
2022/04/24 07:02:02;;;;;;;10.55;8.07;;;;;;;16.08;88.03;100237.16;5188855;28;20531;-71
2022/04/24 07:04:33;;;;;;;11.32;8.80;;;;;;;15.88;85.31;100239.13;5201329;28;20025;-71
2022/04/24 07:07:03;;;;;;;12.45;7.63;;;;;;;15.75;86.18;100240.03;5202145;28;20026;-71
2022/04/24 07:09:34;;;;;;;10.13;7.78;;;;;;;15.69;87.14;100235.47;5200724;28;20375;-71
2022/04/24 07:12:05;;;;;;;13.50;8.13;;;;;;;15.80;88.36;100240.19;5201511;28;20378;-72
2022/04/24 07:14:36;;;;;;;15.60;8.43;;;;;;;16.18;87.62;100251.03;5201738;28;20598;-72
2022/04/24 07:17:06;;;;;;;12.77;8.02;;;;;;;16.49;87.18;100249.38;5201769;28;20032;-71
2022/04/24 07:19:36;;;;;;;9.80;7.72;;;;;;;16.28;85.21;100253.28;5200896;28;20025;-72
2022/04/24 07:22:07;;;;;;;11.00;7.50;;;;;;;16.41;85.74;100244.22;5201842;28;20025;-72
2022/04/24 07:24:37;;;;;;;11.48;8.20;;;;;;;16.98;84.68;100248.59;5200886;28;20303;-72
2022/04/24 07:27:08;;;;;;;8.30;7.10;;;;;;;17.54;84.12;100241.34;5202044;28;20033;-72
2022/04/24 07:29:38;;;;;;;10.20;7.85;;;;;;;17.76;79.92;100242.53;5201774;28;20029;-72
2022/04/24 07:32:09;;;;;;;11.07;8.50;;;;;;;17.91;80.31;100258.41;5202317;28;20059;-72
2022/04/24 07:34:39;;;;;;;9.20;8.00;;;;;;;17.61;76.10;100253.75;5201037;28;20394;-72
2022/04/24 07:37:10;;;;;;;10.50;7.82;;;;;;;17.85;79.14;100257.44;5201298;28;20102;-72
2022/04/24 07:39:40;;;;;;;9.60;7.70;;;;;;;18.36;78.06;100255.28;5196463;28;20119;-71
2022/04/24 07:42:11;;;;;;;10.80;8.07;;;;;;;18.64;76.52;100255.50;5201178;28;20167;-72
2022/04/24 07:44:41;;;;;;;12.45;8.07;;;;;;;18.80;76.48;100259.44;5200663;28;20120;-72
2022/04/24 07:47:12;;;;;;;10.10;8.38;;;;;;;18.91;72.21;100255.06;5201254;28;20037;-72
2022/04/24 07:49:42;;;;;;;9.93;8.13;;;;;;;18.57;71.55;100262.06;5200735;28;20064;-72
2022/04/24 07:52:13;;;;;;;11.93;8.10;;;;;;;18.10;73.94;100267.38;5201807;28;20281;-71
2022/04/24 07:54:43;;;;;;;10.75;7.63;;;;;;;18.31;75.10;100264.13;5200879;28;20022;-72
2022/04/24 07:57:13;;;;;;;9.68;7.88;;;;;;;18.95;73.23;100263.59;5201421;28;20033;-72
2022/04/24 07:59:44;;;;;;;10.73;7.95;;;;;;;19.08;72.67;100266.09;5198060;28;20484;-72
2022/04/24 08:02:14;;;;;;;11.88;7.82;;;;;;;19.20;72.43;100261.47;5196100;28;20091;-72
2022/04/24 08:04:45;;;;;;;11.40;8.75;;;;;;;19.22;70.13;100269.38;5200874;28;20032;-72
2022/04/24 08:07:17;;;;;;;11.63;8.15;;;;;;;19.39;73.38;100273.06;5201342;28;20126;-72
2022/04/24 08:09:49;;;;;;;12.55;7.70;;;;;;;19.64;72.13;100270.09;5201208;28;20375;-72
2022/04/24 08:12:20;;;;;;;9.88;7.63;;;;;;;20.00;68.49;100266.19;5200589;28;20021;-72
2022/04/24 08:14:50;;;;;;;9.05;7.45;;;;;;;20.18;67.10;100268.72;5200886;28;20107;-72
2022/04/24 08:17:21;;;;;;;9.82;7.55;;;;;;;19.70;67.05;100274.56;5201332;28;20205;-72
2022/04/24 08:19:51;;;;;;;11.68;7.93;;;;;;;19.90;69.56;100268.72;5201050;28;20033;-72
2022/04/24 08:22:21;;;;;;;12.57;7.25;;;;;;;19.90;67.32;100274.16;5201445;28;20034;-72
2022/04/24 08:24:52;;;;;;;10.40;8.10;;;;;;;19.99;66.93;100275.44;5199944;28;20037;-73
2022/04/24 08:27:24;;;;;;;9.88;7.03;;;;;;;20.04;66.89;100274.72;5200941;28;20107;-73
2022/04/24 08:29:54;;;;;;;10.40;8.30;;;;;;;19.97;65.74;100272.09;5203325;28;20025;-72
2022/04/24 08:32:25;;;;;;;12.40;8.07;;;;;;;20.19;66.97;100272.28;5205248;28;20020;-72
2022/04/24 08:34:57;;;;;;;9.77;8.25;;;;;;;20.15;67.31;100285.53;5204422;28;20124;-73
2022/04/24 08:37:28;;;;;;;11.38;7.80;;;;;;;20.02;64.37;100283.09;5203153;28;20497;-72
2022/04/24 08:39:59;;;;;;;10.60;7.45;;;;;;;19.79;65.09;100292.19;5191280;28;20026;-72
2022/04/24 08:42:30;;;;;;;10.73;7.20;;;;;;;19.65;67.67;100278.00;5205088;28;20394;-72
2022/04/24 08:45:02;;;;;;;12.60;7.82;;;;;;;19.85;66.98;100285.75;5204531;28;20112;-72
2022/04/24 08:47:33;;;;;;;15.13;8.20;;;;;;;20.14;67.47;100283.91;5205392;28;20025;-72
2022/04/24 08:50:04;;;;;;;11.23;8.18;;;;;;;20.48;67.35;100280.44;5204722;28;20036;-72
2022/04/24 08:52:35;;;;;;;11.82;8.25;;;;;;;20.36;66.75;100292.19;5205348;28;20033;-72
2022/04/24 08:55:06;;;;;;;9.35;7.30;;;;;;;20.58;63.50;100283.34;5204128;28;20395;-71
2022/04/24 08:57:36;;;;;;;10.85;7.38;;;;;;;20.54;64.71;100280.31;5205010;28;20486;-72
2022/04/24 09:00:08;;;;;;;8.93;7.13;;;;;;;20.80;64.99;100281.56;5198555;28;20021;-72
2022/04/24 09:02:39;;;;;;;16.05;7.60;;;;;;;20.84;61.71;100288.19;5199030;28;20037;-72
2022/04/24 09:05:11;;;;;;;9.30;6.93;;;;;;;20.94;61.52;100295.72;5203979;28;20018;-72
2022/04/24 09:07:43;;;;;;;14.68;7.43;;;;;;;20.51;61.78;100285.41;5204908;28;20372;-72
2022/04/24 09:10:14;;;;;;;11.40;7.28;;;;;;;20.20;60.35;100287.53;5204751;28;20029;-73
2022/04/24 09:12:52;;;;;;;9.73;6.90;;;;;;;19.66;62.27;100287.81;5204217;28;20022;-72
2022/04/24 09:15:24;;;;;;;10.35;7.53;;;;;;;20.46;64.47;100286.13;5203879;28;20249;-72
2022/04/24 09:18:12;;;;;;;12.48;7.95;;;;;;;20.65;60.70;100289.47;5205127;28;20021;-72
2022/04/24 09:20:42;;;;;;;9.52;7.30;;;;;;;20.93;61.16;100289.44;5204380;28;20033;-73
2022/04/24 09:23:13;;;;;;;10.63;7.20;;;;;;;20.40;59.53;100293.38;5204406;28;20432;-72
2022/04/24 09:25:43;;;;;;;9.43;7.28;;;;;;;20.33;62.01;100281.81;5203719;28;20033;-73
2022/04/24 09:28:14;;;;;;;11.98;8.23;;;;;;;20.86;62.24;100296.09;5204784;28;20022;-72
2022/04/24 09:31:18;;;;;;;13.60;8.10;;;;;;;21.24;64.23;100283.63;5204307;28;20025;-72
2022/04/24 09:33:51;;;;;;;8.82;7.22;;;;;;;20.98;60.60;100294.09;5204292;28;20037;-73
2022/04/24 09:36:25;;;;;;;9.13;7.18;;;;;;;20.99;59.85;100295.78;5202603;28;20026;-73
2022/04/24 09:38:55;;;;;;;13.27;7.20;;;;;;;20.21;58.20;100285.66;5194511;28;20286;-73
2022/04/24 09:41:25;;;;;;;9.18;6.75;;;;;;;20.74;60.64;100292.63;5197231;28;20029;-73
2022/04/24 09:43:56;;;;;;;11.93;7.00;;;;;;;21.13;59.89;100290.78;5204170;28;20025;-73
2022/04/24 09:46:28;;;;;;;13.95;7.22;;;;;;;21.58;57.99;100284.38;5203229;28;20037;-72
2022/04/24 09:49:01;;;;;;;11.57;7.75;;;;;;;21.21;59.47;100284.94;5204101;28;20475;-73
2022/04/24 09:51:35;;;;;;;10.27;7.03;;;;;;;;;;5203866;28;20029;-73
2022/04/24 09:54:06;;;;;;;13.18;7.82;;;;;;;20.09;57.39;100291.16;5203727;28;20033;-71
2022/04/24 09:56:38;;;;;;;12.93;7.60;;;;;;;20.11;59.46;100287.09;5203108;28;20045;-72
2022/04/24 09:59:09;;;;;;;11.73;8.18;;;;;;;20.66;62.25;100281.06;5203530;28;20025;-72
2022/04/24 10:01:40;;;;;;;12.00;8.27;;;;;;;21.08;61.99;100271.63;5191961;28;20074;-72
2022/04/24 10:04:11;;;;;;;16.33;7.68;;;;;;;21.16;58.69;100276.66;5202862;28;20490;-72
2022/04/24 10:06:44;;;;;;;12.70;7.82;;;;;;;21.39;60.38;100275.69;5203268;28;20028;-72
2022/04/24 10:09:16;;;;;;;9.80;6.68;;;;;;;21.62;60.26;100277.34;5202455;28;20026;-72
2022/04/24 10:11:46;;;;;;;11.63;8.00;;;;;;;21.56;60.42;100270.19;5202993;28;20029;-72
2022/04/24 10:14:19;;;;;;;12.80;8.45;;;;;;;21.58;59.28;100270.75;5202089;28;20025;-73
2022/04/24 10:17:26;;;;;;;11.35;8.27;;;;;;;21.50;57.80;100282.09;5203396;28;20042;-72
2022/04/24 10:20:34;;;;;;;9.73;7.30;;;;;;;21.62;58.17;100280.91;5193375;28;20053;-72
2022/04/24 10:23:05;;;;;;;10.13;7.22;;;;;;;21.46;55.75;100273.59;5202645;28;20144;-73
2022/04/24 10:25:38;;;;;;;10.40;7.35;;;;;;;21.54;56.20;100275.06;5202009;28;20416;-72
2022/04/24 10:28:12;;;;;;;10.68;7.65;;;;;;;21.30;57.04;100269.81;5202952;28;20386;-72
2022/04/24 10:30:56;;;;;;;13.15;8.18;;;;;;;21.17;56.33;100272.88;5202469;28;20100;-72
2022/04/24 10:33:29;;;;;;;11.70;7.88;;;;;;;21.21;56.38;100282.19;5202524;28;20364;-72
2022/04/24 10:36:10;;;;;;;9.63;7.32;;;;;;;20.73;53.80;100280.06;5202039;28;20021;-72
2022/04/24 10:39:00;;;;;;;10.18;7.15;;;;;;;20.57;53.26;100287.16;5193399;28;20029;-72
2022/04/24 10:41:31;;;;;;;8.82;6.57;;;;;;;20.10;55.51;100288.16;5202103;28;20442;-72
2022/04/24 10:44:20;;;;;;;12.20;7.72;;;;;;;19.64;54.79;100284.53;5202302;28;20026;-72
2022/04/24 10:46:53;;;;;;;12.98;7.00;;;;;;;20.41;59.02;100267.78;5201702;28;20025;-72
2022/04/24 10:49:32;;;;;;;8.45;6.75;;;;;;;20.90;59.77;100284.47;5202267;28;20492;-71
2022/04/24 10:52:04;;;;;;;10.38;7.40;;;;;;;20.57;56.08;100287.97;5202088;28;20107;-72
2022/04/24 10:54:38;;;;;;;11.68;7.22;;;;;;;21.07;58.09;100269.97;5201279;28;20509;-72
2022/04/24 10:57:21;;;;;;;11.57;6.47;;;;;;;20.60;55.49;100279.31;5201875;28;20071;-73
2022/04/24 10:59:55;;;;;;;8.18;6.03;;;;;;;20.44;55.37;100282.81;5197858;28;20386;-72
2022/04/24 11:02:41;;;;;;;11.40;6.30;;;;;;;20.13;56.39;100287.69;5194667;28;20116;-72
2022/04/24 11:05:11;;;;;;;14.25;7.10;;;;;;;20.45;55.49;100284.47;5201059;28;20060;-72
2022/04/24 11:07:43;;;;;;;11.15;6.78;;;;;;;20.73;55.33;100283.59;5201677;28;20465;-73
2022/04/24 11:10:19;;;;;;;11.13;7.38;;;;;;;20.54;54.11;100285.75;5201778;28;20491;-73
2022/04/24 11:12:53;;;;;;;11.45;7.95;;;;;;;20.91;55.99;100277.94;5201613;28;20021;-73
2022/04/24 11:15:24;;;;;;;9.77;7.47;;;;;;;21.08;53.51;100269.72;5200792;28;20022;-73
2022/04/24 11:17:54;;;;;;;12.90;6.93;;;;;;;21.41;56.46;100285.25;5201624;28;20755;-73
2022/04/24 11:20:31;;;;;;;16.05;7.85;;;;;;;21.00;54.26;100274.78;5201484;28;20035;-73
2022/04/24 11:23:02;;;;;;;8.32;6.65;;;;;;;20.01;53.01;100292.34;5201566;28;20079;-72
2022/04/24 11:25:38;;;;;;;11.13;6.68;;;;;;;20.21;57.55;100282.91;5200790;28;20087;-72
2022/04/24 11:28:10;;;;;;;13.05;7.47;;;;;;;20.65;55.56;100273.13;5201898;28;20036;-72
2022/04/24 11:30:41;;;;;;;10.07;6.40;;;;;;;20.73;53.40;100280.88;5201506;28;20100;-73
2022/04/24 11:33:12;;;;;;;7.88;5.68;;;;;;;20.65;51.47;100279.41;5201543;28;20446;-73
2022/04/24 11:35:43;;;;;;;10.23;6.03;;;;;;;20.27;50.98;100281.94;5200887;28;20074;-73
2022/04/24 11:38:13;;;;;;;11.57;5.82;;;;;;;20.63;53.56;100291.63;5199725;28;20033;-72
2022/04/24 11:40:46;;;;;;;11.05;7.55;;;;;;;20.92;50.67;100281.47;5188973;28;20188;-72